createdAt,value
2019-03-10T00:01:25.740Z,101343.00
2019-03-10T00:03:58.893Z,101329.00
2019-03-10T00:06:31.664Z,101328.00
2019-03-10T00:09:05.905Z,101330.00
2019-03-10T00:11:39.936Z,101333.00
2019-03-10T00:14:13.527Z,101358.00
2019-03-10T00:16:47.760Z,101350.00
2019-03-10T00:19:21.844Z,101329.00
2019-03-10T00:21:56.068Z,101327.00
2019-03-10T00:24:28.929Z,101331.00
2019-03-10T00:27:02.093Z,101337.00
2019-03-10T00:29:38.990Z,101342.00
2019-03-10T00:32:12.342Z,101341.00
2019-03-10T00:34:46.279Z,101357.00
2019-03-10T00:37:19.458Z,101343.00
2019-03-10T00:40:23.182Z,101334.00
2019-03-10T00:43:22.232Z,101331.00
2019-03-10T00:46:20.253Z,101336.00
2019-03-10T00:49:16.536Z,101331.00
2019-03-10T00:52:04.537Z,101335.00
2019-03-10T00:54:37.576Z,101329.00
2019-03-10T00:57:10.618Z,101331.00
2019-03-10T00:59:43.757Z,101320.00
2019-03-10T01:02:16.737Z,101315.00
2019-03-10T01:04:49.865Z,101306.00
2019-03-10T01:07:22.673Z,101312.00
2019-03-10T01:09:55.871Z,101303.00
2019-03-10T01:12:29.276Z,101302.00
2019-03-10T01:15:03.998Z,101304.00
2019-03-10T01:17:38.608Z,101306.00
2019-03-10T01:20:13.664Z,101294.00
2019-03-10T01:22:47.133Z,101309.00
2019-03-10T01:25:20.473Z,101310.00
2019-03-10T01:27:54.491Z,101298.00
2019-03-10T01:30:27.859Z,101296.00
2019-03-10T01:33:17.919Z,101296.00
2019-03-10T01:35:51.712Z,101266.00
2019-03-10T01:38:26.308Z,101271.00
2019-03-10T01:41:00.930Z,101284.00
2019-03-10T01:43:33.912Z,101277.00
2019-03-10T01:46:07.334Z,101279.00
2019-03-10T01:48:40.368Z,101272.00
2019-03-10T01:51:13.601Z,101275.00
2019-03-10T01:53:46.526Z,101271.00
2019-03-10T01:56:20.192Z,101291.00
2019-03-10T01:58:53.067Z,101293.00
2019-03-10T02:01:29.627Z,101286.00
2019-03-10T02:04:04.892Z,101290.00
2019-03-10T02:06:38.337Z,101283.00
2019-03-10T02:09:12.154Z,101275.00
2019-03-10T02:11:48.107Z,101285.00
2019-03-10T02:14:22.598Z,101284.00
2019-03-10T02:16:55.904Z,101274.00
2019-03-10T02:19:30.057Z,101281.00
2019-03-10T02:22:04.728Z,101278.00
2019-03-10T02:24:39.251Z,101268.00
2019-03-10T02:27:12.303Z,101270.00
2019-03-10T02:29:47.214Z,101263.00
2019-03-10T02:32:21.714Z,101267.00
2019-03-10T02:34:55.968Z,101261.00
2019-03-10T02:37:30.246Z,101257.00
2019-03-10T02:40:05.940Z,101257.00
2019-03-10T02:42:39.270Z,101265.00
2019-03-10T02:45:14.830Z,101248.00
2019-03-10T02:47:48.931Z,101238.00
2019-03-10T02:50:23.367Z,101226.00
2019-03-10T02:52:56.530Z,101235.00
2019-03-10T02:55:29.730Z,101229.00
2019-03-10T02:58:02.638Z,101230.00
2019-03-10T03:00:35.847Z,101226.00
2019-03-10T03:03:09.981Z,101226.00
2019-03-10T03:05:44.212Z,101227.00
2019-03-10T03:08:18.269Z,101241.00
2019-03-10T03:10:52.907Z,101268.00
2019-03-10T03:13:25.978Z,101272.00
2019-03-10T03:16:02.090Z,101269.00
2019-03-10T03:18:35.784Z,101260.00
2019-03-10T03:21:12.119Z,101261.00
2019-03-10T03:23:46.170Z,101244.00
2019-03-10T03:26:21.146Z,101242.00
2019-03-10T03:28:56.796Z,101250.00
2019-03-10T03:31:31.046Z,101263.00
2019-03-10T03:34:05.147Z,101261.00
2019-03-10T03:36:41.213Z,101265.00
2019-03-10T03:39:26.893Z,101267.00
2019-03-10T03:42:02.490Z,101266.00
2019-03-10T03:44:37.798Z,101266.00
2019-03-10T03:47:11.495Z,101267.00
2019-03-10T03:49:47.389Z,101274.00
2019-03-10T03:52:20.478Z,101270.00
2019-03-10T03:54:53.286Z,101267.00
2019-03-10T03:57:28.065Z,101264.00
2019-03-10T04:00:02.145Z,101258.00
2019-03-10T04:02:39.254Z,101264.00
2019-03-10T04:05:14.666Z,101263.00
2019-03-10T04:07:47.734Z,101269.00
2019-03-10T04:10:22.837Z,101261.00
2019-03-10T04:12:56.057Z,101254.00
2019-03-10T04:15:29.017Z,101256.00
2019-03-10T04:18:02.271Z,101264.00
2019-03-10T04:20:35.056Z,101264.00
2019-03-10T04:23:08.387Z,101265.00
2019-03-10T04:25:41.546Z,101261.00
2019-03-10T04:28:16.009Z,101268.00
2019-03-10T04:30:49.803Z,101259.00
2019-03-10T04:33:23.903Z,101255.00
2019-03-10T04:35:57.297Z,101260.00
2019-03-10T04:38:31.747Z,101247.00
2019-03-10T04:41:07.526Z,101246.00
2019-03-10T04:43:41.693Z,101245.00
2019-03-10T04:46:15.834Z,101249.00
2019-03-10T04:48:51.197Z,101248.00
2019-03-10T04:51:26.428Z,101249.00
2019-03-10T04:54:01.794Z,101250.00
2019-03-10T04:56:37.753Z,101242.00
2019-03-10T04:59:12.480Z,101246.00
2019-03-10T05:01:50.060Z,101253.00
2019-03-10T05:04:24.384Z,101250.00
2019-03-10T05:06:58.179Z,101249.00
2019-03-10T05:09:36.777Z,101243.00
2019-03-10T05:12:09.574Z,101243.00
2019-03-10T05:14:42.571Z,101245.00
2019-03-10T05:17:15.343Z,101255.00
2019-03-10T05:19:48.301Z,101246.00
2019-03-10T05:22:21.538Z,101251.00
2019-03-10T05:24:54.313Z,101258.00
2019-03-10T05:27:27.305Z,101258.00
2019-03-10T05:30:01.481Z,101256.00
2019-03-10T05:32:35.717Z,101266.00
2019-03-10T05:35:08.785Z,101264.00
2019-03-10T05:37:42.126Z,101269.00
2019-03-10T05:40:14.971Z,101267.00
2019-03-10T05:42:48.847Z,101269.00
2019-03-10T05:45:22.911Z,101269.00
2019-03-10T05:47:56.800Z,101267.00
2019-03-10T05:50:29.844Z,101277.00
2019-03-10T05:53:03.410Z,101268.00
2019-03-10T05:55:37.524Z,101277.00
2019-03-10T05:58:10.989Z,101272.00
2019-03-10T06:00:44.044Z,101278.00
2019-03-10T06:03:17.804Z,101272.00
2019-03-10T06:05:51.032Z,101260.00
2019-03-10T06:08:24.264Z,101272.00
2019-03-10T06:10:57.264Z,101273.00
2019-03-10T06:13:30.240Z,101272.00
2019-03-10T06:16:03.041Z,101275.00
2019-03-10T06:18:36.367Z,101281.00
2019-03-10T06:21:09.206Z,101280.00
2019-03-10T06:23:42.120Z,101285.00
2019-03-10T06:26:15.054Z,101294.00
2019-03-10T06:28:47.956Z,101301.00
2019-03-10T06:31:20.753Z,101297.00
2019-03-10T06:33:53.525Z,101298.00
2019-03-10T06:36:26.888Z,101298.00
2019-03-10T06:39:01.334Z,101296.00
2019-03-10T06:41:34.701Z,101297.00
2019-03-10T06:44:07.526Z,101287.00
2019-03-10T06:46:40.529Z,101307.00
2019-03-10T06:49:13.999Z,101306.00
2019-03-10T06:51:47.033Z,101310.00
2019-03-10T06:54:20.072Z,101313.00
2019-03-10T06:56:52.873Z,101315.00
2019-03-10T06:59:25.876Z,101311.00
2019-03-10T07:01:58.866Z,101308.00
2019-03-10T07:04:32.058Z,101307.00
2019-03-10T07:07:05.252Z,101309.00
2019-03-10T07:09:38.454Z,101313.00
2019-03-10T07:12:11.201Z,101313.00
2019-03-10T07:14:44.337Z,101311.00
2019-03-10T07:17:17.319Z,101314.00
2019-03-10T07:19:50.650Z,101317.00
2019-03-10T07:22:23.576Z,101329.00
2019-03-10T07:24:56.928Z,101324.00
2019-03-10T07:27:30.803Z,101332.00
2019-03-10T07:30:04.815Z,101325.00
2019-03-10T07:32:45.384Z,101333.00
2019-03-10T07:35:28.383Z,101330.00
2019-03-10T07:38:11.406Z,101332.00
2019-03-10T07:40:45.427Z,101341.00
2019-03-10T07:43:23.895Z,101337.00
2019-03-10T07:46:10.597Z,101344.00
2019-03-10T07:48:47.832Z,101341.00
2019-03-10T07:51:38.243Z,101361.00
2019-03-10T07:54:12.583Z,101349.00
2019-03-10T07:56:49.525Z,101361.00
2019-03-10T07:59:24.240Z,101362.00
2019-03-10T08:02:02.111Z,101367.00
2019-03-10T08:04:52.660Z,101366.00
2019-03-10T08:07:29.705Z,101357.00
2019-03-10T08:10:04.101Z,101360.00
2019-03-10T08:12:50.302Z,101363.00
2019-03-10T08:15:41.146Z,101370.00
2019-03-10T08:18:21.035Z,101375.00
2019-03-10T08:21:11.627Z,101381.00
2019-03-10T08:23:56.519Z,101381.00
2019-03-10T08:26:47.369Z,101389.00
2019-03-10T08:29:24.670Z,101384.00
2019-03-10T08:32:02.054Z,101392.00
2019-03-10T08:34:42.297Z,101386.00
2019-03-10T08:37:19.766Z,101385.00
2019-03-10T08:40:06.215Z,101405.00
2019-03-10T08:42:46.468Z,101406.00
2019-03-10T08:45:20.399Z,101412.00
2019-03-10T08:47:54.889Z,101408.00
2019-03-10T08:50:31.788Z,101416.00
2019-03-10T08:53:19.293Z,101426.00
2019-03-10T08:56:08.181Z,101426.00
2019-03-10T08:58:42.509Z,101422.00
2019-03-10T09:01:35.144Z,101416.00
2019-03-10T09:04:12.811Z,101421.00
2019-03-10T09:06:49.949Z,101433.00
2019-03-10T09:09:34.000Z,101423.00
2019-03-10T09:12:14.098Z,101428.00
2019-03-10T09:14:48.537Z,101431.00
2019-03-10T09:17:38.293Z,101432.00
2019-03-10T09:20:13.213Z,101428.00
2019-03-10T09:23:02.339Z,101423.00
2019-03-10T09:25:36.776Z,101428.00
2019-03-10T09:28:10.919Z,101428.00
2019-03-10T09:30:48.115Z,101429.00
2019-03-10T09:33:28.563Z,101424.00
2019-03-10T09:36:19.497Z,101427.00
2019-03-10T09:38:56.774Z,101430.00
2019-03-10T09:41:40.498Z,101432.00
2019-03-10T09:44:26.927Z,101428.00
2019-03-10T09:47:07.517Z,101420.00
2019-03-10T09:49:44.658Z,101410.00
2019-03-10T09:52:35.453Z,101409.00
2019-03-10T09:55:12.633Z,101409.00
2019-03-10T09:57:49.570Z,101409.00
2019-03-10T10:00:26.699Z,101401.00
2019-03-10T10:03:10.374Z,101406.00
2019-03-10T10:05:47.214Z,101413.00
2019-03-10T10:08:27.427Z,101398.00
2019-03-10T10:11:07.590Z,101400.00
2019-03-10T10:13:48.567Z,101408.00
2019-03-10T10:16:39.382Z,101406.00
2019-03-10T10:19:14.149Z,101403.00
2019-03-10T10:22:04.745Z,101401.00
2019-03-10T10:24:39.146Z,101411.00
2019-03-10T10:27:23.000Z,101408.00
2019-03-10T10:30:03.629Z,101412.00
2019-03-10T10:32:44.552Z,101414.00
2019-03-10T10:35:22.298Z,101412.00
2019-03-10T10:38:18.132Z,101412.00
2019-03-10T10:40:59.546Z,101401.00
2019-03-10T10:43:34.334Z,101401.00
2019-03-10T10:46:11.826Z,101399.00
2019-03-10T10:48:46.355Z,101401.00
2019-03-10T10:51:20.325Z,101404.00
2019-03-10T10:53:55.398Z,101410.00
2019-03-10T10:56:46.965Z,101403.00
2019-03-10T10:59:21.170Z,101403.00
2019-03-10T11:05:13.895Z,101412.00
2019-03-10T11:07:47.865Z,101411.00
2019-03-10T11:10:27.793Z,101412.00
2019-03-10T11:13:02.067Z,101416.00
2019-03-10T11:15:36.179Z,101413.00
2019-03-10T11:18:10.506Z,101405.00
2019-03-10T11:20:50.931Z,101410.00
2019-03-10T11:23:31.245Z,101410.00
2019-03-10T11:26:05.378Z,101412.00
2019-03-10T11:29:00.843Z,101419.00
2019-03-10T11:31:42.690Z,101427.00
2019-03-10T11:34:17.120Z,101439.00
2019-03-10T11:36:51.323Z,101430.00
2019-03-10T11:39:28.671Z,101427.00
2019-03-10T11:42:02.651Z,101415.00
2019-03-10T11:44:46.162Z,101410.00
2019-03-10T11:47:38.507Z,101419.00
2019-03-10T11:50:23.161Z,101415.00
2019-03-10T11:52:57.195Z,101419.00
2019-03-10T11:55:34.932Z,101423.00
2019-03-10T11:58:09.284Z,101429.00
2019-03-10T12:00:43.516Z,101434.00
2019-03-10T12:03:17.980Z,101423.00
2019-03-10T12:05:58.479Z,101432.00
2019-03-10T12:08:39.079Z,101431.00
2019-03-10T12:11:12.268Z,101424.00
2019-03-10T12:13:45.084Z,101416.00
2019-03-10T12:16:18.576Z,101418.00
2019-03-10T12:18:51.577Z,101433.00
2019-03-10T12:21:24.892Z,101449.00
2019-03-10T12:23:57.654Z,101444.00
2019-03-10T12:26:30.937Z,101445.00
2019-03-10T12:29:03.729Z,101435.00
2019-03-10T12:31:36.970Z,101433.00
2019-03-10T12:34:09.905Z,101426.00
2019-03-10T12:36:42.902Z,101420.00
2019-03-10T12:39:17.171Z,101417.00
2019-03-10T12:41:58.024Z,101427.00
2019-03-10T12:44:24.511Z,101425.00
2019-03-10T12:46:57.558Z,101416.00
2019-03-10T12:49:30.499Z,101426.00
2019-03-10T12:52:03.965Z,101430.00
2019-03-10T12:54:37.085Z,101427.00
2019-03-10T12:57:10.042Z,101422.00
2019-03-10T12:59:42.843Z,101407.00
2019-03-10T13:02:15.751Z,101408.00
2019-03-10T13:04:50.423Z,101404.00
2019-03-10T13:07:23.251Z,101409.00
2019-03-10T13:09:56.315Z,101410.00
2019-03-10T13:12:29.094Z,101397.00
2019-03-10T13:15:02.023Z,101396.00
2019-03-10T13:17:35.133Z,101413.00
2019-03-10T13:20:09.925Z,101411.00
2019-03-10T13:22:43.043Z,101410.00
2019-03-10T13:25:15.960Z,101411.00
2019-03-10T13:27:49.651Z,101413.00
2019-03-10T13:30:22.576Z,101409.00
2019-03-10T13:32:55.497Z,101420.00
2019-03-10T13:35:28.800Z,101418.00
2019-03-10T13:38:01.111Z,101417.00
2019-03-10T13:40:34.198Z,101421.00
2019-03-10T13:43:06.989Z,101419.00
2019-03-10T13:45:39.981Z,101418.00
2019-03-10T13:48:12.812Z,101416.00
2019-03-10T13:50:45.812Z,101421.00
2019-03-10T13:53:18.622Z,101415.00
2019-03-10T13:55:52.014Z,101416.00
2019-03-10T13:58:24.723Z,101415.00
2019-03-10T14:00:58.621Z,101412.00
2019-03-10T14:03:31.708Z,101416.00
2019-03-10T14:06:04.639Z,101406.00
2019-03-10T14:08:37.456Z,101398.00
2019-03-10T14:11:10.439Z,101405.00
2019-03-10T14:13:43.446Z,101409.00
2019-03-10T14:16:16.335Z,101411.00
2019-03-10T14:18:49.637Z,101408.00
2019-03-10T14:21:22.389Z,101408.00
2019-03-10T14:23:55.218Z,101423.00
2019-03-10T14:26:27.971Z,101426.00
2019-03-10T14:29:01.032Z,101424.00
2019-03-10T14:31:33.732Z,101426.00
2019-03-10T14:34:06.533Z,101428.00
2019-03-10T14:36:39.471Z,101428.00
2019-03-10T14:39:12.151Z,101423.00
2019-03-10T14:41:45.077Z,101418.00
2019-03-10T14:44:17.835Z,101406.00
2019-03-10T14:46:51.266Z,101406.00
2019-03-10T14:49:23.896Z,101408.00
2019-03-10T14:51:56.722Z,101410.00
2019-03-10T14:54:29.386Z,101423.00
2019-03-10T14:57:03.023Z,101415.00
2019-03-10T14:59:35.780Z,101419.00
2019-03-10T15:02:08.816Z,101424.00
2019-03-10T15:04:41.554Z,101428.00
2019-03-10T15:07:14.972Z,101415.00
2019-03-10T15:09:47.710Z,101429.00
2019-03-10T15:12:20.700Z,101428.00
2019-03-10T15:14:53.506Z,101429.00
2019-03-10T15:17:26.451Z,101428.00
2019-03-10T15:19:59.113Z,101422.00
2019-03-10T15:22:31.901Z,101422.00
2019-03-10T15:25:04.617Z,101420.00
2019-03-10T15:27:37.578Z,101417.00
2019-03-10T15:30:12.442Z,101420.00
2019-03-10T15:32:45.486Z,101424.00
2019-03-10T15:35:18.186Z,101421.00
2019-03-10T15:37:51.195Z,101427.00
2019-03-10T15:40:24.207Z,101421.00
2019-03-10T15:42:57.164Z,101421.00
2019-03-10T15:45:29.893Z,101415.00
2019-03-10T15:48:03.893Z,101417.00
2019-03-10T15:50:37.411Z,101420.00
2019-03-10T15:53:10.550Z,101420.00
2019-03-10T15:55:43.308Z,101422.00
2019-03-10T15:58:16.296Z,101427.00
2019-03-10T16:00:48.949Z,101425.00
2019-03-10T16:03:22.816Z,101428.00
2019-03-10T16:05:55.455Z,101424.00
2019-03-10T16:08:29.005Z,101423.00
2019-03-10T16:11:01.673Z,101425.00
2019-03-10T16:13:34.739Z,101428.00
2019-03-10T16:16:07.514Z,101426.00
2019-03-10T16:18:41.586Z,101423.00
2019-03-10T16:21:14.430Z,101418.00
2019-03-10T16:23:47.510Z,101417.00
2019-03-10T16:26:20.290Z,101423.00
2019-03-10T16:28:53.231Z,101425.00
2019-03-10T16:31:26.137Z,101413.00
2019-03-10T16:33:58.855Z,101416.00
2019-03-10T16:36:31.500Z,101422.00
2019-03-10T16:39:04.523Z,101424.00
2019-03-10T16:41:37.511Z,101413.00
2019-03-10T16:44:10.569Z,101419.00
2019-03-10T16:46:43.456Z,101421.00
2019-03-10T16:49:18.208Z,101423.00
2019-03-10T16:51:52.129Z,101420.00
2019-03-10T16:54:24.989Z,101420.00
2019-03-10T16:56:57.873Z,101424.00
2019-03-10T16:59:34.171Z,101427.00
2019-03-10T17:02:06.635Z,101419.00
2019-03-10T17:04:39.627Z,101419.00
2019-03-10T17:07:12.453Z,101424.00
2019-03-10T17:09:45.257Z,101416.00
2019-03-10T17:12:18.207Z,101427.00
2019-03-10T17:14:50.933Z,101427.00
2019-03-10T17:17:24.085Z,101423.00
2019-03-10T17:19:57.816Z,101435.00
2019-03-10T17:22:31.620Z,101437.00
2019-03-10T17:25:04.644Z,101440.00
2019-03-10T17:27:38.699Z,101449.00
2019-03-10T17:30:16.590Z,101444.00
2019-03-10T17:32:50.195Z,101448.00
2019-03-10T17:35:23.206Z,101444.00
2019-03-10T17:37:56.269Z,101448.00
2019-03-10T17:40:29.411Z,101448.00
2019-03-10T17:43:02.343Z,101443.00
2019-03-10T17:45:35.395Z,101446.00
2019-03-10T17:48:08.243Z,101450.00
2019-03-10T17:50:40.930Z,101448.00
2019-03-10T17:53:13.701Z,101446.00
2019-03-10T17:55:46.774Z,101440.00
2019-03-10T17:58:19.469Z,101453.00
2019-03-10T18:00:52.466Z,101439.00
2019-03-10T18:03:25.596Z,101439.00
2019-03-10T18:05:58.538Z,101440.00
2019-03-10T18:08:31.425Z,101456.00
2019-03-10T18:11:04.277Z,101455.00
2019-03-10T18:13:37.112Z,101456.00
2019-03-10T18:16:09.651Z,101460.00
2019-03-10T18:18:42.757Z,101463.00
2019-03-10T18:21:15.741Z,101453.00
2019-03-10T18:23:48.587Z,101459.00
2019-03-10T18:26:21.303Z,101467.00
2019-03-10T18:28:54.074Z,101465.00
2019-03-10T18:31:27.863Z,101472.00
2019-03-10T18:34:00.671Z,101472.00
2019-03-10T18:36:33.606Z,101482.00
2019-03-10T18:39:07.454Z,101478.00
2019-03-10T18:41:40.121Z,101483.00
2019-03-10T18:44:13.133Z,101492.00
2019-03-10T18:46:45.822Z,101494.00
2019-03-10T18:49:18.621Z,101497.00
2019-03-10T18:51:51.621Z,101493.00
2019-03-10T18:54:24.385Z,101504.00
2019-03-10T18:56:57.348Z,101503.00
2019-03-10T18:59:30.181Z,101501.00
2019-03-10T19:02:03.117Z,101500.00
2019-03-10T19:04:35.764Z,101495.00
2019-03-10T19:07:08.527Z,101502.00
2019-03-10T19:09:41.023Z,101503.00
2019-03-10T19:12:13.724Z,101507.00
2019-03-10T19:14:47.196Z,101503.00
2019-03-10T19:17:20.156Z,101505.00
2019-03-10T19:19:52.928Z,101498.00
2019-03-10T19:22:25.943Z,101505.00
2019-03-10T19:24:59.171Z,101512.00
2019-03-10T19:27:32.055Z,101516.00
2019-03-10T19:30:05.046Z,101512.00
2019-03-10T19:32:38.022Z,101514.00
2019-03-10T19:35:12.390Z,101523.00
2019-03-10T19:37:45.201Z,101521.00
2019-03-10T19:40:19.247Z,101518.00
2019-03-10T19:42:52.514Z,101510.00
2019-03-10T19:45:26.407Z,101516.00
2019-03-10T19:47:59.355Z,101517.00
2019-03-10T19:50:32.311Z,101510.00
2019-03-10T19:53:05.331Z,101520.00
2019-03-10T19:55:38.107Z,101510.00
2019-03-10T19:58:11.425Z,101507.00
2019-03-10T20:00:44.210Z,101510.00
2019-03-10T20:03:17.452Z,101507.00
2019-03-10T20:05:50.379Z,101507.00
2019-03-10T20:08:23.469Z,101511.00
2019-03-10T20:10:56.207Z,101505.00
2019-03-10T20:13:29.191Z,101517.00
2019-03-10T20:16:01.981Z,101510.00
2019-03-10T20:18:35.466Z,101509.00
2019-03-10T20:21:08.170Z,101511.00
2019-03-10T20:23:41.643Z,101510.00
2019-03-10T20:26:16.112Z,101512.00
2019-03-10T20:28:49.743Z,101509.00
2019-03-10T20:31:22.368Z,101509.00
2019-03-10T20:33:55.207Z,101512.00
2019-03-10T20:36:28.677Z,101515.00
2019-03-10T20:39:02.237Z,101514.00
2019-03-10T20:41:34.928Z,101519.00
2019-03-10T20:44:08.004Z,101513.00
2019-03-10T20:46:40.880Z,101514.00
2019-03-10T20:49:13.865Z,101521.00
2019-03-10T20:51:46.649Z,101515.00
2019-03-10T20:54:19.761Z,101515.00
2019-03-10T20:56:52.827Z,101518.00
2019-03-10T20:59:25.818Z,101514.00
2019-03-10T21:01:58.598Z,101519.00
2019-03-10T21:04:31.283Z,101517.00
2019-03-10T21:07:04.211Z,101521.00
2019-03-10T21:09:36.995Z,101518.00
2019-03-10T21:12:10.507Z,101516.00
2019-03-10T21:14:43.115Z,101505.00
2019-03-10T21:17:16.132Z,101510.00
2019-03-10T21:19:48.981Z,101515.00
2019-03-10T21:22:21.880Z,101509.00
2019-03-10T21:24:54.814Z,101514.00
2019-03-10T21:27:27.685Z,101514.00
2019-03-10T21:30:00.496Z,101506.00
2019-03-10T21:32:33.478Z,101517.00
2019-03-10T21:35:16.840Z,101525.00
2019-03-10T21:37:40.411Z,101527.00
2019-03-10T21:40:14.945Z,101523.00
2019-03-10T21:42:47.918Z,101528.00
2019-03-10T21:45:20.609Z,101528.00
2019-03-10T21:47:54.810Z,101522.00
2019-03-10T21:50:27.569Z,101528.00
2019-03-10T21:53:00.387Z,101523.00
2019-03-10T21:55:33.885Z,101522.00
2019-03-10T21:58:06.573Z,101519.00
2019-03-10T22:00:39.344Z,101525.00
2019-03-10T22:03:12.330Z,101526.00
2019-03-10T22:05:44.974Z,101517.00
2019-03-10T22:08:18.038Z,101521.00
2019-03-10T22:10:50.679Z,101522.00
2019-03-10T22:13:23.609Z,101530.00
2019-03-10T22:15:56.260Z,101517.00
2019-03-10T22:18:30.380Z,101518.00
2019-03-10T22:21:03.049Z,101513.00
2019-03-10T22:23:36.918Z,101509.00
2019-03-10T22:26:10.847Z,101509.00
2019-03-10T22:28:46.771Z,101513.00
2019-03-10T22:31:20.311Z,101515.00
2019-03-10T22:33:54.128Z,101514.00
2019-03-10T22:36:27.085Z,101517.00
2019-03-10T22:38:59.986Z,101503.00
2019-03-10T22:41:32.889Z,101513.00
2019-03-10T22:44:05.655Z,101516.00
2019-03-10T22:46:39.510Z,101521.00
2019-03-10T22:49:12.210Z,101518.00
2019-03-10T22:51:45.152Z,101531.00
2019-03-10T22:54:17.979Z,101522.00
2019-03-10T22:56:51.136Z,101522.00
2019-03-10T22:59:26.079Z,101526.00
2019-03-10T23:01:58.975Z,101521.00
2019-03-10T23:04:31.796Z,101534.00
2019-03-10T23:07:04.678Z,101521.00
2019-03-10T23:09:38.520Z,101521.00
2019-03-10T23:12:11.287Z,101514.00
2019-03-10T23:14:44.238Z,101514.00
2019-03-10T23:17:16.798Z,101520.00
2019-03-10T23:19:49.624Z,101512.00
2019-03-10T23:22:22.542Z,101503.00
2019-03-10T23:24:55.867Z,101504.00
2019-03-10T23:27:28.791Z,101494.00
2019-03-10T23:30:02.326Z,101500.00
2019-03-10T23:32:35.177Z,101500.00
2019-03-10T23:35:09.166Z,101494.00
2019-03-10T23:37:41.975Z,101506.00
2019-03-10T23:40:19.192Z,101498.00
2019-03-10T23:42:51.924Z,101503.00
2019-03-10T23:45:24.787Z,101501.00
2019-03-10T23:47:58.703Z,101501.00
2019-03-10T23:50:31.635Z,101497.00
2019-03-10T23:53:04.872Z,101505.00
2019-03-10T23:55:37.789Z,101501.00
2019-03-10T23:58:10.829Z,101499.00
